Time;durP1;ratioP1;P1;durP2;ratioP2;P2;SDS_P1;SDS_P2;PMS_P1;PMS_P2;Temp;Humidity;BMP_temperature;BMP_pressure;BME280_temperature;BME280_humidity;BME280_pressure;Samples;Min_cycle;Max_cycle;Signal;HPM_P1;HPM_P2
2021/05/22 00:02:25;;;;;;;8.43;2.17;;;11.20;69.30;;;;;;5129616;27;20679;-62
2021/05/22 00:04:51;;;;;;;7.10;1.60;;;11.20;69.60;;;;;;5129501;27;20388;-62
2021/05/22 00:07:17;;;;;;;9.53;1.80;;;11.20;69.70;;;;;;5129919;27;20453;-60
2021/05/22 00:09:45;;;;;;;11.80;2.27;;;11.20;69.70;;;;;;5132746;27;20043;-62
2021/05/22 00:12:12;;;;;;;7.40;1.77;;;11.20;69.40;;;;;;5131226;27;20301;-61
2021/05/22 00:14:38;;;;;;;9.10;1.93;;;11.30;69.60;;;;;;5129302;28;20300;-62
2021/05/22 00:17:03;;;;;;;15.17;1.90;;;11.30;69.70;;;;;;5128919;28;20319;-62
2021/05/22 00:19:29;;;;;;;11.47;1.90;;;11.30;69.30;;;;;;5129744;28;20993;-62
2021/05/22 00:21:55;;;;;;;9.23;1.83;;;11.30;69.10;;;;;;5129658;28;20120;-62
2021/05/22 00:24:22;;;;;;;11.37;1.70;;;11.30;69.10;;;;;;5129372;28;20083;-62
2021/05/22 00:26:48;;;;;;;11.67;1.73;;;11.30;68.80;;;;;;5129053;28;21035;-61
2021/05/22 00:29:13;;;;;;;11.13;2.27;;;11.30;68.70;;;;;;5129385;28;20429;-61
2021/05/22 00:31:39;;;;;;;11.13;1.87;;;11.40;68.40;;;;;;5129342;28;20043;-62
2021/05/22 00:34:05;;;;;;;9.97;2.00;;;11.40;68.30;;;;;;5129575;28;20043;-62
2021/05/22 00:36:30;;;;;;;9.47;2.20;;;11.30;68.00;;;;;;5129001;28;20091;-62
2021/05/22 00:38:56;;;;;;;11.13;2.10;;;11.40;68.00;;;;;;5129246;28;20070;-62
2021/05/22 00:41:22;;;;;;;10.83;2.00;;;11.30;68.30;;;;;;5129016;28;20129;-62
2021/05/22 00:43:48;;;;;;;14.70;2.17;;;11.30;68.50;;;;;;5129216;28;20047;-62
2021/05/22 00:46:13;;;;;;;8.77;1.60;;;11.30;68.90;;;;;;5110483;28;20103;-62
2021/05/22 00:48:40;;;;;;;12.97;2.03;;;11.20;69.50;;;;;;5129327;28;20093;-62
2021/05/22 00:51:06;;;;;;;11.67;2.30;;;11.20;70.10;;;;;;5129292;28;20043;-62
2021/05/22 00:53:32;;;;;;;12.27;2.00;;;11.20;70.50;;;;;;5128873;28;20352;-61
2021/05/22 00:56:00;;;;;;;8.70;2.03;;;11.20;70.90;;;;;;5129114;28;20297;-62
2021/05/22 00:58:26;;;;;;;8.07;1.70;;;11.20;71.30;;;;;;5110995;28;21088;-62
2021/05/22 01:00:53;;;;;;;7.97;2.00;;;11.20;72.10;;;;;;5129019;28;20391;-62
2021/05/22 01:03:37;;;;;;;7.50;1.63;;;11.20;72.80;;;;;;5129930;27;20043;-60
2021/05/22 01:06:27;;;;;;;7.13;1.67;;;11.10;73.40;;;;;;5133038;27;20285;-62
2021/05/22 01:09:01;;;;;;;6.83;2.13;;;11.10;73.50;;;;;;5132938;27;20160;-62
2021/05/22 01:11:43;;;;;;;9.13;1.77;;;11.10;73.90;;;;;;5132963;27;20349;-62
2021/05/22 01:14:20;;;;;;;10.00;2.23;;;11.00;74.30;;;;;;5132691;27;20047;-61
2021/05/22 01:16:50;;;;;;;7.90;2.30;;;11.00;74.80;;;;;;5132420;27;20403;-62
2021/05/22 01:19:31;;;;;;;8.53;1.50;;;10.90;75.60;;;;;;5132506;27;20341;-61
2021/05/22 01:21:56;;;;;;;10.03;2.00;;;10.80;76.00;;;;;;5132579;27;20296;-62
2021/05/22 01:24:24;;;;;;;7.87;1.70;;;10.80;76.10;;;;;;5132496;27;20748;-62
2021/05/22 01:26:51;;;;;;;8.03;1.67;;;10.80;77.70;;;;;;5132427;27;20352;-61
2021/05/22 01:29:17;;;;;;;7.00;2.17;;;10.70;77.60;;;;;;5132847;27;20324;-61
2021/05/22 01:31:43;;;;;;;7.27;1.60;;;10.70;77.60;;;;;;5132832;27;20349;-62
2021/05/22 01:34:09;;;;;;;8.27;1.90;;;10.70;78.60;;;;;;5132761;27;20505;-62
2021/05/22 01:36:35;;;;;;;9.87;1.70;;;10.70;78.40;;;;;;5132185;27;20313;-63
2021/05/22 01:39:01;;;;;;;5.40;1.73;;;10.70;79.60;;;;;;5132494;27;20410;-61
2021/05/22 01:41:26;;;;;;;6.37;1.80;;;10.70;79.10;;;;;;5132282;27;20126;-62
2021/05/22 01:43:56;;;;;;;8.20;1.70;;;10.60;79.40;;;;;;5132464;27;20039;-62
2021/05/22 01:46:24;;;;;;;5.43;1.73;;;10.70;79.50;;;;;;5132595;27;20062;-60
2021/05/22 01:48:51;;;;;;;8.13;2.30;;;10.60;79.20;;;;;;5132659;27;20380;-62
2021/05/22 01:51:20;;;;;;;3.53;1.67;;;10.60;79.70;;;;;;5132222;27;20320;-62
2021/05/22 01:53:47;;;;;;;8.33;2.00;;;10.70;79.50;;;;;;5132083;27;20811;-62
2021/05/22 01:56:14;;;;;;;8.63;2.20;;;10.60;79.90;;;;;;5132292;27;20308;-62
2021/05/22 01:58:40;;;;;;;9.37;1.83;;;10.70;79.30;;;;;;5132322;27;20411;-62
2021/05/22 02:01:10;;;;;;;5.30;2.03;;;10.60;80.00;;;;;;5132353;27;20300;-63
2021/05/22 02:03:41;;;;;;;6.87;1.80;;;10.60;79.80;;;;;;5132098;27;20289;-60
2021/05/22 02:06:20;;;;;;;8.03;1.90;;;10.60;80.00;;;;;;5131912;27;20631;-59
2021/05/22 02:08:46;;;;;;;7.47;1.77;;;10.60;80.20;;;;;;5131543;27;20292;-59
2021/05/22 02:11:13;;;;;;;5.07;1.70;;;10.60;80.10;;;;;;5131870;27;20289;-61
2021/05/22 02:13:41;;;;;;;7.87;1.83;;;10.70;79.70;;;;;;5131956;27;20288;-60
2021/05/22 02:16:09;;;;;;;9.13;2.00;;;10.60;79.60;;;;;;5131442;27;20316;-61
2021/05/22 02:18:35;;;;;;;6.00;1.53;;;10.60;79.50;;;;;;5131641;27;20297;-61
2021/05/22 02:21:02;;;;;;;9.43;1.80;;;10.60;80.10;;;;;;5131578;27;20323;-60
2021/05/22 02:23:29;;;;;;;7.30;1.83;;;10.60;79.40;;;;;;5131473;27;20296;-61
2021/05/22 02:25:57;;;;;;;10.13;2.27;;;10.60;79.50;;;;;;5131018;27;20293;-61
2021/05/22 02:28:30;;;;;;;9.90;2.37;;;10.60;79.50;;;;;;5131248;27;20763;-61
2021/05/22 02:30:56;;;;;;;10.83;2.10;;;10.60;79.40;;;;;;5131268;27;20319;-61
2021/05/22 02:33:23;;;;;;;8.77;1.90;;;10.60;79.50;;;;;;5112871;27;20293;-59
2021/05/22 02:35:52;;;;;;;7.97;2.00;;;10.60;78.50;;;;;;5131166;27;20300;-61
2021/05/22 02:38:36;;;;;;;9.77;2.27;;;10.70;79.40;;;;;;5131196;27;20315;-61
2021/05/22 02:41:06;;;;;;;5.43;1.73;;;10.60;78.50;;;;;;5130894;27;20293;-61
2021/05/22 02:43:33;;;;;;;9.20;1.57;;;10.60;79.20;;;;;;5131147;27;20394;-60
2021/05/22 02:46:00;;;;;;;6.33;1.50;;;10.70;79.00;;;;;;5130896;27;20349;-60
2021/05/22 02:48:27;;;;;;;5.30;1.40;;;10.70;78.10;;;;;;5130670;27;20370;-60
2021/05/22 02:50:56;;;;;;;9.57;2.07;;;10.70;78.10;;;;;;5130818;27;20353;-60
2021/05/22 02:53:23;;;;;;;8.50;1.93;;;10.70;77.90;;;;;;5131014;27;20387;-61
2021/05/22 02:55:50;;;;;;;8.77;1.77;;;10.80;78.30;;;;;;5130953;27;20297;-61
2021/05/22 02:58:17;;;;;;;7.67;1.50;;;10.70;78.10;;;;;;5130191;27;20327;-61
2021/05/22 03:00:44;;;;;;;7.13;1.60;;;10.70;78.00;;;;;;5130548;27;20300;-61
2021/05/22 03:03:10;;;;;;;7.87;2.10;;;10.70;78.10;;;;;;5130494;27;20424;-61
2021/05/22 03:05:36;;;;;;;9.73;1.67;;;10.70;77.90;;;;;;5130630;27;20296;-60
2021/05/22 03:08:03;;;;;;;9.57;1.60;;;10.70;78.00;;;;;;5111966;27;20788;-60
2021/05/22 03:10:29;;;;;;;6.30;1.87;;;10.70;77.90;;;;;;5130295;27;20322;-60
2021/05/22 03:12:55;;;;;;;4.47;1.40;;;10.70;78.20;;;;;;5129963;27;20395;-60
2021/05/22 03:15:21;;;;;;;8.83;1.60;;;10.70;78.50;;;;;;5129795;27;20433;-61
2021/05/22 03:17:47;;;;;;;10.97;2.10;;;10.70;78.30;;;;;;5130344;27;20164;-61
2021/05/22 03:20:13;;;;;;;7.90;1.70;;;10.70;78.20;;;;;;5130282;27;20051;-61
2021/05/22 03:22:40;;;;;;;5.53;1.70;;;10.70;78.30;;;;;;5130255;27;20058;-61
2021/05/22 03:25:06;;;;;;;6.87;1.83;;;10.70;78.40;;;;;;5129771;27;20293;-61
2021/05/22 03:27:33;;;;;;;8.60;2.47;;;10.70;78.20;;;;;;5129602;27;20349;-61
2021/05/22 03:29:59;;;;;;;6.57;1.50;;;10.70;78.20;;;;;;5129878;27;20299;-61
2021/05/22 03:32:25;;;;;;;7.57;1.50;;;10.70;79.10;;;;;;5129739;27;20055;-61
2021/05/22 03:34:51;;;;;;;8.27;1.87;;;10.70;79.10;;;;;;5111364;27;20293;-61
2021/05/22 03:37:16;;;;;;;8.20;1.70;;;10.70;79.10;;;;;;5129226;27;20665;-61
2021/05/22 03:39:42;;;;;;;8.40;1.50;;;10.70;79.90;;;;;;5129267;27;20043;-60
2021/05/22 03:42:08;;;;;;;8.33;2.13;;;10.70;79.60;;;;;;5110262;27;20043;-60
2021/05/22 03:44:34;;;;;;;6.17;1.83;;;10.70;79.80;;;;;;5129333;27;20136;-60
2021/05/22 03:47:00;;;;;;;6.43;1.77;;;10.70;80.00;;;;;;5129534;27;20462;-60
2021/05/22 03:49:28;;;;;;;6.00;1.77;;;10.70;80.20;;;;;;5129798;27;20062;-61
2021/05/22 03:51:54;;;;;;;7.93;1.60;;;10.70;80.80;;;;;;5129517;27;20043;-60
2021/05/22 03:54:20;;;;;;;6.10;1.60;;;10.60;83.20;;;;;;5129713;27;20635;-61
2021/05/22 03:56:47;;;;;;;5.90;1.40;;;10.50;84.30;;;;;;5129527;27;20663;-61
2021/05/22 03:59:12;;;;;;;5.97;1.93;;;10.50;85.00;;;;;;5129252;27;20304;-61
2021/05/22 04:01:38;;;;;;;6.33;1.60;;;10.50;87.00;;;;;;5128994;27;20093;-60
2021/05/22 04:04:04;;;;;;;7.13;1.70;;;10.50;87.50;;;;;;5129544;27;20051;-60
2021/05/22 04:06:30;;;;;;;6.93;1.73;;;10.40;88.50;;;;;;5129397;27;20465;-61
2021/05/22 04:08:56;;;;;;;5.60;1.50;;;10.30;90.60;;;;;;5129228;27;20300;-61
2021/05/22 04:11:22;;;;;;;6.40;1.80;;;10.20;93.40;;;;;;5128926;27;20301;-61
2021/05/22 04:13:49;;;;;;;7.33;1.80;;;10.20;93.00;;;;;;5129222;27;20043;-60
2021/05/22 04:16:15;;;;;;;5.57;1.53;;;10.10;94.70;;;;;;5128906;28;20377;-60
2021/05/22 04:18:40;;;;;;;9.97;1.80;;;10.10;95.10;;;;;;5128390;28;20043;-59
2021/05/22 04:21:06;;;;;;;7.37;1.90;;;10.00;95.00;;;;;;5129126;28;20435;-59
2021/05/22 04:23:33;;;;;;;5.17;2.00;;;9.90;97.70;;;;;;5128930;28;20105;-59
2021/05/22 04:25:59;;;;;;;8.37;2.43;;;9.80;98.50;;;;;;5128962;28;20328;-61
2021/05/22 04:28:25;;;;;;;6.80;2.10;;;9.70;99.90;;;;;;5128852;28;20071;-60
2021/05/22 04:30:51;;;;;;;10.17;2.60;;;9.70;99.90;;;;;;5129058;28;20332;-60
2021/05/22 04:33:17;;;;;;;8.63;2.10;;;9.70;99.90;;;;;;5129079;28;20088;-61
2021/05/22 04:35:43;;;;;;;7.27;2.00;;;9.60;99.90;;;;;;5129166;28;20142;-60
2021/05/22 04:38:09;;;;;;;8.13;2.13;;;9.60;99.90;;;;;;5129828;27;20395;-60
2021/05/22 04:40:35;;;;;;;9.30;2.20;;;9.60;99.90;;;;;;5133338;27;20453;-60
2021/05/22 04:43:01;;;;;;;8.97;2.13;;;9.50;99.90;;;;;;5133159;27;20054;-60
2021/05/22 04:45:27;;;;;;;6.27;2.00;;;9.50;99.90;;;;;;5133148;27;20119;-59
2021/05/22 04:47:52;;;;;;;9.37;2.83;;;9.50;99.90;;;;;;5133441;27;20131;-60
2021/05/22 04:50:19;;;;;;;8.20;2.40;;;9.40;99.90;;;;;;5133048;27;20043;-60
2021/05/22 04:52:44;;;;;;;7.73;2.07;;;9.40;99.90;;;;;;5132952;27;20316;-60
2021/05/22 04:55:11;;;;;;;7.33;2.33;;;9.40;99.90;;;;;;5114363;27;20054;-59
2021/05/22 04:57:37;;;;;;;8.03;2.20;;;9.40;99.90;;;;;;5133282;27;20086;-60
2021/05/22 05:00:07;;;;;;;7.73;1.97;;;9.40;99.90;;;;;;5134762;27;20694;-60
2021/05/22 05:02:33;;;;;;;10.33;2.10;;;9.40;99.90;;;;;;5134827;27;20050;-59
2021/05/22 05:04:59;;;;;;;5.77;1.90;;;9.40;99.90;;;;;;5134261;27;20379;-60
2021/05/22 05:07:25;;;;;;;10.00;1.90;;;9.30;99.90;;;;;;5138991;27;20415;-60
2021/05/22 05:09:51;;;;;;;7.33;2.00;;;9.30;99.90;;;;;;5132900;27;20138;-60
2021/05/22 05:12:17;;;;;;;6.87;2.17;;;9.30;99.90;;;;;;5131815;27;20043;-60
2021/05/22 05:14:43;;;;;;;7.33;1.90;;;9.30;99.90;;;;;;5132647;27;20380;-60
2021/05/22 05:17:08;;;;;;;8.60;2.33;;;9.30;99.90;;;;;;5132495;27;20312;-60
2021/05/22 05:19:34;;;;;;;6.30;1.87;;;9.30;99.90;;;;;;5132673;27;20103;-60
2021/05/22 05:22:00;;;;;;;7.20;2.30;;;9.40;99.90;;;;;;5132950;27;20039;-60
2021/05/22 05:24:27;;;;;;;5.57;2.10;;;9.40;99.90;;;;;;5132991;27;20046;-60
2021/05/22 05:26:52;;;;;;;5.90;2.20;;;9.40;99.90;;;;;;5132635;27;20047;-61
2021/05/22 05:29:18;;;;;;;6.97;1.87;;;9.40;99.90;;;;;;5132851;27;20324;-60
2021/05/22 05:31:44;;;;;;;6.90;2.10;;;9.40;99.90;;;;;;5136448;27;20299;-60
2021/05/22 05:34:10;;;;;;;5.33;1.77;;;9.40;99.90;;;;;;5138511;27;20039;-60
2021/05/22 05:36:37;;;;;;;10.40;2.30;;;9.30;99.90;;;;;;5132556;27;20467;-60
2021/05/22 05:39:04;;;;;;;6.43;2.03;;;9.40;99.90;;;;;;5132806;27;20062;-59
2021/05/22 05:41:30;;;;;;;6.73;2.10;;;9.40;99.90;;;;;;5133982;27;20292;-59
2021/05/22 05:43:56;;;;;;;9.33;2.57;;;9.30;99.90;;;;;;5134747;27;20364;-59
2021/05/22 05:46:22;;;;;;;9.37;2.50;;;9.40;99.90;;;;;;5133891;27;20039;-60
2021/05/22 05:48:48;;;;;;;7.30;2.73;;;9.40;99.90;;;;;;5131642;27;20376;-60
2021/05/22 05:51:13;;;;;;;7.37;2.17;;;9.40;99.90;;;;;;5133465;27;20302;-60
2021/05/22 05:53:39;;;;;;;7.10;2.20;;;9.30;99.90;;;;;;5133710;27;20482;-58
2021/05/22 05:56:05;;;;;;;7.63;2.27;;;9.30;99.90;;;;;;5132578;27;20039;-60
2021/05/22 05:58:32;;;;;;;5.63;2.23;;;9.30;99.90;;;;;;5131665;27;20296;-59
2021/05/22 06:00:58;;;;;;;7.10;2.40;;;9.40;99.90;;;;;;5132876;27;20051;-60
2021/05/22 06:03:31;;;;;;;3.87;2.23;;;9.30;99.90;;;;;;5133304;27;20328;-60
2021/05/22 06:05:57;;;;;;;7.53;2.33;;;9.40;99.90;;;;;;5130556;27;20289;-60
2021/05/22 06:08:24;;;;;;;11.77;2.37;;;9.30;99.90;;;;;;5131848;27;20368;-59
2021/05/22 06:10:51;;;;;;;7.17;2.10;;;9.40;99.90;;;;;;5132135;27;20300;-60
2021/05/22 06:13:32;;;;;;;5.77;1.93;;;9.30;99.90;;;;;;5129147;27;20310;-60
2021/05/22 06:16:15;;;;;;;8.67;2.43;;;9.40;99.90;;;;;;5128977;27;20292;-60
2021/05/22 06:18:41;;;;;;;9.30;2.47;;;9.40;99.90;;;;;;5131069;27;20332;-59
2021/05/22 06:21:08;;;;;;;11.83;2.60;;;9.40;99.90;;;;;;5132872;27;20332;-60
2021/05/22 06:23:35;;;;;;;9.23;2.37;;;9.40;99.90;;;;;;5134668;27;20389;-59
2021/05/22 06:26:01;;;;;;;7.40;2.20;;;9.40;99.90;;;;;;5133981;27;20300;-59
2021/05/22 06:28:28;;;;;;;10.27;2.60;;;9.50;99.90;;;;;;5135763;27;20289;-59
2021/05/22 06:31:04;;;;;;;8.67;2.80;;;9.60;99.90;;;;;;5135095;27;20296;-61
2021/05/22 06:33:30;;;;;;;8.13;2.40;;;9.60;99.90;;;;;;5138341;27;20746;-62
2021/05/22 06:35:56;;;;;;;8.07;2.67;;;9.50;99.90;;;;;;5138128;27;20376;-60
2021/05/22 06:38:22;;;;;;;8.43;2.50;;;9.90;99.90;;;;;;5136702;27;20056;-61
2021/05/22 06:40:48;;;;;;;8.47;2.87;;;9.60;99.90;;;;;;5136498;27;20060;-61
2021/05/22 06:43:14;;;;;;;12.63;2.97;;;9.60;99.90;;;;;;5135087;27;20050;-62
2021/05/22 06:45:46;;;;;;;8.93;2.50;;;9.70;99.90;;;;;;5135277;27;20300;-60
2021/05/22 06:48:13;;;;;;;9.20;2.63;;;9.70;99.90;;;;;;5135490;27;20312;-61
2021/05/22 06:50:40;;;;;;;8.43;2.90;;;9.70;99.90;;;;;;5133727;27;20293;-61
2021/05/22 06:53:06;;;;;;;7.77;2.50;;;9.80;99.90;;;;;;5138218;27;20308;-60
2021/05/22 06:55:33;;;;;;;11.13;3.50;;;9.90;99.90;;;;;;5136772;27;20333;-61
2021/05/22 06:58:00;;;;;;;6.27;2.67;;;9.90;99.90;;;;;;5133959;27;20430;-61
2021/05/22 07:00:26;;;;;;;6.90;2.53;;;10.10;99.90;;;;;;5134267;27;20315;-61
2021/05/22 07:02:52;;;;;;;6.17;2.43;;;10.00;99.90;;;;;;5131876;27;20387;-60
2021/05/22 07:05:18;;;;;;;11.27;2.87;;;10.10;99.90;;;;;;5116426;27;20327;-62
2021/05/22 07:07:44;;;;;;;6.53;2.33;;;10.10;99.90;;;;;;5132766;27;20106;-61
2021/05/22 07:10:11;;;;;;;6.97;2.77;;;10.20;99.90;;;;;;5132805;27;20620;-61
2021/05/22 07:12:36;;;;;;;9.13;2.27;;;10.10;99.90;;;;;;5139238;27;20042;-61
2021/05/22 07:15:04;;;;;;;12.90;2.63;;;10.10;99.90;;;;;;5139976;27;20293;-61
2021/05/22 07:17:30;;;;;;;8.77;2.40;;;10.10;99.90;;;;;;5137448;27;20406;-61
2021/05/22 07:19:55;;;;;;;6.87;2.57;;;10.10;99.90;;;;;;5137565;27;20300;-62
2021/05/22 07:22:21;;;;;;;6.67;2.60;;;10.20;99.90;;;;;;5137612;27;20066;-63
2021/05/22 07:24:50;;;;;;;8.93;2.43;;;10.20;99.90;;;;;;5139492;27;20402;-62
2021/05/22 07:27:16;;;;;;;7.23;2.37;;;10.30;99.90;;;;;;5137817;27;20036;-63
2021/05/22 07:29:45;;;;;;;6.67;2.30;;;10.30;99.90;;;;;;5136881;27;20295;-62
2021/05/22 07:32:12;;;;;;;8.93;2.37;;;10.30;99.90;;;;;;5133092;27;20289;-60
2021/05/22 07:34:37;;;;;;;5.40;2.13;;;10.30;99.90;;;;;;5132809;27;20299;-61
2021/05/22 07:37:03;;;;;;;6.73;1.93;;;10.40;99.90;;;;;;5131826;27;20133;-59
2021/05/22 07:39:29;;;;;;;7.37;2.20;;;10.50;99.90;;;;;;5131072;27;20047;-59
2021/05/22 07:41:54;;;;;;;9.13;2.53;;;10.60;99.90;;;;;;5130713;27;20076;-59
2021/05/22 07:44:20;;;;;;;6.33;2.20;;;10.60;99.90;;;;;;5111650;27;20328;-60
2021/05/22 07:46:46;;;;;;;6.13;2.30;;;10.60;99.90;;;;;;5129892;27;20051;-62
2021/05/22 07:49:11;;;;;;;5.40;2.20;;;10.70;99.90;;;;;;5130333;27;20385;-59
2021/05/22 07:51:39;;;;;;;6.70;1.93;;;10.80;99.90;;;;;;5130973;27;20047;-60
2021/05/22 07:54:05;;;;;;;6.60;2.17;;;10.80;99.90;;;;;;5110940;27;20043;-61
2021/05/22 07:56:31;;;;;;;6.83;2.07;;;10.90;99.90;;;;;;5129903;27;20403;-61
2021/05/22 07:58:56;;;;;;;5.53;2.40;;;10.90;99.90;;;;;;5129402;27;20699;-61
2021/05/22 08:01:22;;;;;;;3.70;1.80;;;10.90;99.90;;;;;;5129298;27;20096;-61
2021/05/22 08:03:48;;;;;;;4.93;2.20;;;10.90;99.90;;;;;;5129472;27;20099;-60
2021/05/22 08:06:14;;;;;;;6.73;2.20;;;10.80;99.90;;;;;;5110916;27;20077;-60
2021/05/22 08:08:40;;;;;;;5.77;2.43;;;10.90;99.90;;;;;;5129563;27;20042;-60
2021/05/22 08:11:05;;;;;;;5.50;1.97;;;10.80;99.90;;;;;;5130330;27;20318;-59
2021/05/22 08:13:32;;;;;;;5.77;2.00;;;10.70;99.90;;;;;;5130148;27;20043;-66
2021/05/22 08:15:58;;;;;;;4.17;2.20;;;10.70;99.90;;;;;;5128095;27;20099;-66
2021/05/22 08:18:24;;;;;;;5.63;2.93;;;10.60;99.90;;;;;;5127372;28;20722;-65
2021/05/22 08:20:50;;;;;;;6.20;2.20;;;10.60;99.90;;;;;;5128176;28;20293;-66
2021/05/22 08:23:16;;;;;;;4.17;2.40;;;10.80;99.90;;;;;;5128546;28;20057;-62
2021/05/22 08:25:42;;;;;;;5.07;2.67;;;10.60;99.90;;;;;;5129224;28;20295;-61
2021/05/22 08:28:08;;;;;;;5.83;2.80;;;10.60;99.90;;;;;;5128327;28;20123;-61
2021/05/22 08:30:35;;;;;;;6.03;3.20;;;10.70;99.90;;;;;;5128907;28;20051;-60
2021/05/22 08:33:02;;;;;;;6.33;3.13;;;10.80;99.90;;;;;;5128501;28;20307;-57
2021/05/22 08:35:29;;;;;;;6.17;2.57;;;10.70;99.90;;;;;;5128942;28;20299;-63
2021/05/22 08:37:56;;;;;;;6.07;2.90;;;10.60;99.90;;;;;;5128267;28;20324;-62
2021/05/22 08:40:26;;;;;;;8.03;2.73;;;10.60;99.90;;;;;;5109620;28;20758;-60
2021/05/22 08:42:53;;;;;;;5.77;3.80;;;10.60;99.90;;;;;;5128234;28;20293;-59
2021/05/22 08:45:20;;;;;;;6.40;2.90;;;10.70;99.90;;;;;;5128519;28;20296;-59
2021/05/22 08:47:50;;;;;;;4.83;2.73;;;10.70;99.90;;;;;;5128277;28;20301;-60
2021/05/22 08:50:17;;;;;;;3.93;2.67;;;10.80;99.90;;;;;;5128456;28;20315;-60
2021/05/22 08:52:44;;;;;;;4.30;3.00;;;10.80;99.90;;;;;;5128603;28;20298;-59
2021/05/22 08:55:11;;;;;;;4.07;2.80;;;10.80;99.90;;;;;;5128457;28;20307;-59
2021/05/22 08:57:37;;;;;;;3.83;3.13;;;10.80;99.90;;;;;;5128458;28;20400;-59
2021/05/22 09:00:10;;;;;;;7.60;2.60;;;10.80;99.90;;;;;;5127031;28;20304;-59
2021/05/22 09:02:36;;;;;;;7.53;2.83;;;10.80;99.90;;;;;;5128648;28;20346;-59
2021/05/22 09:05:04;;;;;;;5.93;3.17;;;10.80;99.90;;;;;;5127768;28;20328;-58
2021/05/22 09:07:31;;;;;;;4.37;3.20;;;10.80;99.90;;;;;;5112663;28;20574;-58
2021/05/22 09:10:14;;;;;;;7.33;3.27;;;10.70;99.90;;;;;;5134859;28;20296;-59
2021/05/22 09:12:42;;;;;;;4.50;3.73;;;10.70;99.90;;;;;;5132982;28;20677;-62
2021/05/22 09:15:15;;;;;;;4.67;3.47;;;10.80;99.90;;;;;;5132103;28;20375;-60
2021/05/22 09:17:55;;;;;;;4.93;3.70;;;10.80;99.90;;;;;;5127562;28;20725;-60
2021/05/22 09:20:25;;;;;;;6.23;3.50;;;10.80;99.90;;;;;;5124332;28;20390;-60
2021/05/22 09:23:00;;;;;;;4.50;4.07;;;10.80;99.90;;;;;;5126413;28;20818;-61
2021/05/22 09:25:27;;;;;;;6.78;3.90;;;10.90;99.90;;;;;;5127518;27;20686;-60
2021/05/22 09:27:54;;;;;;;7.20;4.60;;;10.90;99.90;;;;;;5130501;27;20458;-60
2021/05/22 09:30:22;;;;;;;4.97;4.00;;;10.90;99.90;;;;;;5128001;27;20771;-60
2021/05/22 09:32:48;;;;;;;4.20;3.80;;;10.90;99.90;;;;;;5129774;27;20285;-60
2021/05/22 09:35:16;;;;;;;6.80;4.20;;;11.00;99.90;;;;;;5129301;27;20308;-59
2021/05/22 09:37:44;;;;;;;8.97;4.80;;;11.00;99.90;;;;;;5130058;27;20313;-58
2021/05/22 09:40:14;;;;;;;17.60;5.60;;;11.00;99.90;;;;;;5131247;27;20304;-60
2021/05/22 09:42:41;;;;;;;5.50;4.30;;;11.10;99.90;;;;;;5130847;27;20289;-60
2021/05/22 09:45:30;;;;;;;8.73;4.40;;;11.10;99.90;;;;;;5129994;27;20328;-60
2021/05/22 09:47:59;;;;;;;6.90;4.37;;;11.10;99.90;;;;;;5128734;27;20296;-60
2021/05/22 09:50:29;;;;;;;12.00;4.63;;;11.20;99.90;;;;;;5131106;27;20347;-60
2021/05/22 09:52:55;;;;;;;4.87;3.90;;;11.30;99.90;;;;;;5129962;27;20293;-59
2021/05/22 09:55:22;;;;;;;5.40;4.00;;;11.30;99.90;;;;;;5130417;27;20341;-60
2021/05/22 09:57:51;;;;;;;4.30;3.90;;;11.40;99.90;;;;;;5130247;27;20385;-61
2021/05/22 10:00:19;;;;;;;4.90;3.50;;;11.70;99.90;;;;;;5130674;27;20314;-61
2021/05/22 10:02:50;;;;;;;5.77;3.90;;;11.90;99.90;;;;;;5130558;27;20292;-61
2021/05/22 10:05:35;;;;;;;5.00;3.77;;;12.10;99.90;;;;;;5130599;27;20296;-60
2021/05/22 10:08:04;;;;;;;5.37;3.10;;;12.20;99.90;;;;;;5111505;27;20319;-60
2021/05/22 10:10:41;;;;;;;4.80;3.47;;;12.10;99.90;;;;;;5130462;27;20304;-61
2021/05/22 10:13:08;;;;;;;3.90;3.30;;;12.00;99.90;;;;;;5130418;27;20320;-60
2021/05/22 10:15:35;;;;;;;3.77;3.47;;;12.10;99.90;;;;;;5130590;27;20316;-60
2021/05/22 10:18:02;;;;;;;4.50;3.70;;;12.30;99.90;;;;;;5130401;27;20334;-60
2021/05/22 10:20:28;;;;;;;3.43;3.13;;;12.40;99.90;;;;;;5130904;27;20289;-60
2021/05/22 10:22:54;;;;;;;3.60;3.27;;;12.50;99.90;;;;;;5130021;27;20297;-60
2021/05/22 10:25:21;;;;;;;4.53;4.00;;;12.30;99.90;;;;;;5129832;27;20316;-61
2021/05/22 10:27:48;;;;;;;4.73;3.60;;;12.20;99.90;;;;;;5130051;27;20292;-61
2021/05/22 10:30:16;;;;;;;4.83;3.77;;;12.30;99.90;;;;;;5111759;27;20342;-60
2021/05/22 10:32:43;;;;;;;3.67;3.37;;;12.10;99.90;;;;;;5129984;27;20308;-60
2021/05/22 10:35:20;;;;;;;3.43;3.20;;;12.00;99.90;;;;;;5129783;27;20301;-60
2021/05/22 10:37:50;;;;;;;4.27;3.87;;;12.00;99.90;;;;;;5130124;27;20317;-60
2021/05/22 10:40:18;;;;;;;5.47;4.57;;;11.90;99.90;;;;;;5129736;27;20299;-60
2021/05/22 10:42:50;;;;;;;14.73;4.07;;;12.00;99.90;;;;;;5128563;27;20794;-60
2021/05/22 10:45:39;;;;;;;4.80;4.40;;;12.00;99.90;;;;;;5129964;27;20324;-61
2021/05/22 10:48:06;;;;;;;7.40;4.93;;;12.00;99.90;;;;;;5128833;27;20292;-61
2021/05/22 10:50:44;;;;;;;10.70;4.63;;;11.90;99.90;;;;;;5129895;27;20361;-61
2021/05/22 10:53:25;;;;;;;9.53;4.83;;;11.80;99.90;;;;;;5132063;27;20375;-60
2021/05/22 10:56:03;;;;;;;6.27;4.73;;;11.70;99.90;;;;;;5133772;27;20288;-60
2021/05/22 10:58:29;;;;;;;6.63;5.67;;;11.50;99.90;;;;;;5136178;27;20304;-60
2021/05/22 11:01:22;;;;;;;10.87;5.10;;;11.40;99.90;;;;;;5121826;27;20297;-59
2021/05/22 11:04:21;;;;;;;4.70;3.60;;;11.40;99.90;;;;;;5115043;27;20039;-60
2021/05/22 11:07:16;;;;;;;3.00;2.80;;;11.50;99.90;;;;;;5118040;28;20293;-60
2021/05/22 11:09:44;;;;;;;2.05;1.90;;;11.70;99.90;;;;;;5111214;28;20353;-59
2021/05/22 11:12:09;;;;;;;2.47;2.27;;;11.80;99.90;;;;;;5111423;28;20040;-60
2021/05/22 11:14:53;;;;;;;1.97;1.87;;;12.10;99.90;;;;;;5111099;28;20760;-59
2021/05/22 11:20:03;;;;;;;2.77;2.17;;;12.50;99.90;;;;;;5108566;28;20043;-60
2021/05/22 11:22:38;;;;;;;3.30;2.50;;;12.70;99.90;;;;;;5108339;28;20381;-59
2021/05/22 11:25:07;;;;;;;6.27;3.30;;;12.80;99.90;;;;;;5107869;28;20079;-59
2021/05/22 11:30:21;;;;;;;7.87;3.57;;;13.20;99.90;;;;;;5107707;28;20737;-59
2021/05/22 11:32:57;;;;;;;4.13;3.13;;;13.50;99.90;;;;;;5107492;28;20294;-59
2021/05/22 11:35:35;;;;;;;5.17;3.37;;;13.70;99.90;;;;;;5089575;28;20430;-59
2021/05/22 11:38:23;;;;;;;5.00;3.70;;;13.70;99.90;;;;;;5107328;28;20317;-59
2021/05/22 11:40:54;;;;;;;4.10;3.80;;;13.60;99.90;;;;;;5107429;28;20316;-59
2021/05/22 11:43:20;;;;;;;5.60;3.80;;;13.40;99.90;;;;;;5108643;28;20643;-64
2021/05/22 11:45:53;;;;;;;4.13;3.70;;;13.20;99.90;;;;;;5125781;27;20369;-58
2021/05/22 11:48:33;;;;;;;4.50;3.80;;;13.20;99.90;;;;;;5137898;27;20647;-58
2021/05/22 11:51:10;;;;;;;3.53;3.23;;;13.00;99.90;;;;;;5136341;27;20292;-58
2021/05/22 11:53:39;;;;;;;4.23;3.93;;;12.90;99.90;;;;;;5114360;27;20312;-58
2021/05/22 11:56:13;;;;;;;6.03;4.23;;;12.70;99.90;;;;;;5130463;27;20797;-58
2021/05/22 11:58:47;;;;;;;4.80;4.17;;;12.60;99.90;;;;;;5131465;27;20300;-59
2021/05/22 12:01:22;;;;;;;4.70;4.30;;;12.60;99.90;;;;;;5132905;27;20394;-59
2021/05/22 12:04:00;;;;;;;4.53;3.93;;;12.40;99.90;;;;;;5132875;27;20035;-58
2021/05/22 12:06:36;;;;;;;5.80;4.50;;;12.30;99.90;;;;;;5130206;27;20437;-58
2021/05/22 12:09:20;;;;;;;4.43;4.03;;;12.50;99.90;;;;;;5130078;27;20601;-66
2021/05/22 12:12:27;;;;;;;6.70;4.30;;;12.50;99.90;;;;;;5128968;27;20297;-58
2021/05/22 12:14:53;;;;;;;5.90;4.40;;;12.60;99.90;;;;;;5078016;27;20051;-59
2021/05/22 12:17:20;;;;;;;6.80;3.70;;;12.70;99.90;;;;;;5125102;27;20309;-58
2021/05/22 12:19:50;;;;;;;4.33;3.00;;;12.80;99.90;;;;;;5124390;28;20084;-58
2021/05/22 12:22:24;;;;;;;5.53;3.33;;;13.10;99.90;;;;;;5125400;28;20353;-60
2021/05/22 12:24:50;;;;;;;4.07;3.10;;;13.30;99.90;;;;;;5123150;28;20384;-60
2021/05/22 12:27:16;;;;;;;4.00;2.30;;;13.40;99.90;;;;;;5126456;28;20444;-58
2021/05/22 12:29:47;;;;;;;5.17;2.17;;;13.60;99.90;;;;;;5127669;28;20100;-58
2021/05/22 12:32:14;;;;;;;5.27;2.30;;;13.90;99.30;;;;;;5128122;28;20400;-58
2021/05/22 12:34:39;;;;;;;6.23;2.20;;;14.10;99.70;;;;;;5128090;28;20296;-58
2021/05/22 12:37:07;;;;;;;4.67;2.10;;;14.30;96.20;;;;;;5129537;28;20319;-59
2021/05/22 12:39:39;;;;;;;8.20;1.90;;;14.80;99.10;;;;;;5128831;28;20039;-59
2021/05/22 12:42:20;;;;;;;3.43;2.00;;;14.60;92.50;;;;;;5129129;28;20296;-58
2021/05/22 12:44:50;;;;;;;6.43;2.23;;;14.40;93.90;;;;;;5128335;28;20292;-59
2021/05/22 12:47:17;;;;;;;6.00;2.10;;;14.30;93.90;;;;;;5128291;28;20303;-58
2021/05/22 12:49:57;;;;;;;4.53;1.90;;;14.20;92.20;;;;;;5127936;28;20384;-58
2021/05/22 12:52:23;;;;;;;5.53;2.00;;;14.30;91.60;;;;;;5126821;28;20383;-60
2021/05/22 12:54:49;;;;;;;6.00;2.30;;;14.30;93.10;;;;;;5128241;28;20305;-60
2021/05/22 12:57:23;;;;;;;10.33;1.97;;;14.30;91.60;;;;;;5128016;28;20312;-61
2021/05/22 12:59:54;;;;;;;4.43;1.85;;;14.30;92.00;;;;;;5132201;27;20053;-61
2021/05/22 13:02:27;;;;;;;5.93;1.77;;;14.10;89.90;;;;;;5133007;27;20496;-60